sensor_id;sensor_type;location;lat;lon;timestamp;temperature;humidity
69009;SHT31;56065;52.472;13.380;2023-05-14T00:01:52;14.56;69.40
69009;SHT31;56065;52.472;13.380;2023-05-14T00:04:17;14.51;69.05
69009;SHT31;56065;52.472;13.380;2023-05-14T00:06:44;14.50;68.79
69009;SHT31;56065;52.472;13.380;2023-05-14T00:09:10;14.53;68.61
69009;SHT31;56065;52.472;13.380;2023-05-14T00:11:35;14.50;69.27
69009;SHT31;56065;52.472;13.380;2023-05-14T00:14:01;14.51;68.93
69009;SHT31;56065;52.472;13.380;2023-05-14T00:16:26;14.48;68.42
69009;SHT31;56065;52.472;13.380;2023-05-14T00:18:51;14.50;68.56
69009;SHT31;56065;52.472;13.380;2023-05-14T00:21:17;14.44;69.07
69009;SHT31;56065;52.472;13.380;2023-05-14T00:23:42;14.43;69.43
69009;SHT31;56065;52.472;13.380;2023-05-14T00:26:07;14.41;69.45
69009;SHT31;56065;52.472;13.380;2023-05-14T00:28:33;14.43;69.40
69009;SHT31;56065;52.472;13.380;2023-05-14T00:30:58;14.43;70.09
69009;SHT31;56065;52.472;13.380;2023-05-14T00:33:23;14.44;69.98
69009;SHT31;56065;52.472;13.380;2023-05-14T00:35:49;14.46;69.96
69009;SHT31;56065;52.472;13.380;2023-05-14T00:38:15;14.44;69.84
69009;SHT31;56065;52.472;13.380;2023-05-14T00:40:45;14.47;69.67
69009;SHT31;56065;52.472;13.380;2023-05-14T00:43:19;14.44;70.20
69009;SHT31;56065;52.472;13.380;2023-05-14T00:45:45;14.47;70.03
69009;SHT31;56065;52.472;13.380;2023-05-14T00:48:12;14.50;70.45
69009;SHT31;56065;52.472;13.380;2023-05-14T00:50:37;14.50;70.55
69009;SHT31;56065;52.472;13.380;2023-05-14T00:53:04;14.50;70.41
69009;SHT31;56065;52.472;13.380;2023-05-14T00:55:35;14.48;70.03
69009;SHT31;56065;52.472;13.380;2023-05-14T00:58:04;14.41;70.25
69009;SHT31;56065;52.472;13.380;2023-05-14T01:00:31;14.36;70.62
69009;SHT31;56065;52.472;13.380;2023-05-14T01:02:56;14.34;70.63
69009;SHT31;56065;52.472;13.380;2023-05-14T01:08:26;14.20;70.23
69009;SHT31;56065;52.472;13.380;2023-05-14T01:11:03;14.16;70.49
69009;SHT31;56065;52.472;13.380;2023-05-14T01:16:12;14.05;70.64
69009;SHT31;56065;52.472;13.380;2023-05-14T01:18:40;14.01;70.21
69009;SHT31;56065;52.472;13.380;2023-05-14T01:21:22;13.96;70.23
69009;SHT31;56065;52.472;13.380;2023-05-14T01:23:48;13.96;70.30
69009;SHT31;56065;52.472;13.380;2023-05-14T01:26:13;13.92;70.62
69009;SHT31;56065;52.472;13.380;2023-05-14T01:28:38;13.87;70.68
69009;SHT31;56065;52.472;13.380;2023-05-14T01:31:12;13.86;70.92
69009;SHT31;56065;52.472;13.380;2023-05-14T01:33:41;13.86;70.39
69009;SHT31;56065;52.472;13.380;2023-05-14T01:36:08;13.83;70.00
69009;SHT31;56065;52.472;13.380;2023-05-14T01:38:34;13.81;70.33
69009;SHT31;56065;52.472;13.380;2023-05-14T01:41:01;13.79;70.03
69009;SHT31;56065;52.472;13.380;2023-05-14T01:43:26;13.75;70.10
69009;SHT31;56065;52.472;13.380;2023-05-14T01:45:52;13.72;70.67
69009;SHT31;56065;52.472;13.380;2023-05-14T01:48:19;13.71;70.92
69009;SHT31;56065;52.472;13.380;2023-05-14T01:50:44;13.69;70.50
69009;SHT31;56065;52.472;13.380;2023-05-14T01:53:10;13.71;70.40
69009;SHT31;56065;52.472;13.380;2023-05-14T01:55:35;13.74;70.74
69009;SHT31;56065;52.472;13.380;2023-05-14T01:58:00;13.75;70.52
69009;SHT31;56065;52.472;13.380;2023-05-14T02:00:26;13.78;70.72
69009;SHT31;56065;52.472;13.380;2023-05-14T02:02:51;13.82;70.60
69009;SHT31;56065;52.472;13.380;2023-05-14T02:05:17;13.86;70.35
69009;SHT31;56065;52.472;13.380;2023-05-14T02:07:43;13.90;70.17
69009;SHT31;56065;52.472;13.380;2023-05-14T02:10:08;13.96;70.34
69009;SHT31;56065;52.472;13.380;2023-05-14T02:12:34;14.02;70.16
69009;SHT31;56065;52.472;13.380;2023-05-14T02:15:00;14.02;70.27
69009;SHT31;56065;52.472;13.380;2023-05-14T02:17:25;14.05;70.41
69009;SHT31;56065;52.472;13.380;2023-05-14T02:19:51;14.12;69.86
69009;SHT31;56065;52.472;13.380;2023-05-14T02:22:16;14.19;69.53
69009;SHT31;56065;52.472;13.380;2023-05-14T02:24:42;14.22;69.19
69009;SHT31;56065;52.472;13.380;2023-05-14T02:27:07;14.29;68.88
69009;SHT31;56065;52.472;13.380;2023-05-14T02:29:32;14.30;68.36
69009;SHT31;56065;52.472;13.380;2023-05-14T02:31:58;14.24;68.61
69009;SHT31;56065;52.472;13.380;2023-05-14T02:34:23;14.34;67.99
69009;SHT31;56065;52.472;13.380;2023-05-14T02:36:48;14.34;67.40
69009;SHT31;56065;52.472;13.380;2023-05-14T02:39:14;14.40;66.98
69009;SHT31;56065;52.472;13.380;2023-05-14T02:41:39;14.41;66.71
69009;SHT31;56065;52.472;13.380;2023-05-14T02:44:04;14.44;66.81
69009;SHT31;56065;52.472;13.380;2023-05-14T02:46:31;14.46;67.09
69009;SHT31;56065;52.472;13.380;2023-05-14T02:48:56;14.50;66.67
69009;SHT31;56065;52.472;13.380;2023-05-14T02:51:22;14.51;66.83
69009;SHT31;56065;52.472;13.380;2023-05-14T02:53:47;14.53;66.56
69009;SHT31;56065;52.472;13.380;2023-05-14T02:56:13;14.56;67.16
69009;SHT31;56065;52.472;13.380;2023-05-14T02:58:38;14.56;67.59
69009;SHT31;56065;52.472;13.380;2023-05-14T03:01:03;14.59;67.02
69009;SHT31;56065;52.472;13.380;2023-05-14T03:03:29;14.64;66.26
69009;SHT31;56065;52.472;13.380;2023-05-14T03:05:55;14.59;65.85
69009;SHT31;56065;52.472;13.380;2023-05-14T03:08:20;14.64;66.03
69009;SHT31;56065;52.472;13.380;2023-05-14T03:10:46;14.65;66.03
69009;SHT31;56065;52.472;13.380;2023-05-14T03:13:11;14.68;65.87
69009;SHT31;56065;52.472;13.380;2023-05-14T03:15:36;14.70;65.98
69009;SHT31;56065;52.472;13.380;2023-05-14T03:18:02;14.71;65.84
69009;SHT31;56065;52.472;13.380;2023-05-14T03:20:27;14.71;66.08
69009;SHT31;56065;52.472;13.380;2023-05-14T03:22:53;14.73;65.70
69009;SHT31;56065;52.472;13.380;2023-05-14T03:25:20;14.77;65.18
69009;SHT31;56065;52.472;13.380;2023-05-14T03:27:45;14.78;65.51
69009;SHT31;56065;52.472;13.380;2023-05-14T03:30:11;14.78;65.24
69009;SHT31;56065;52.472;13.380;2023-05-14T03:32:36;14.78;65.99
69009;SHT31;56065;52.472;13.380;2023-05-14T03:35:02;14.80;66.14
69009;SHT31;56065;52.472;13.380;2023-05-14T03:37:27;14.83;65.49
69009;SHT31;56065;52.472;13.380;2023-05-14T03:39:53;14.85;66.04
69009;SHT31;56065;52.472;13.380;2023-05-14T03:42:18;14.85;66.00
69009;SHT31;56065;52.472;13.380;2023-05-14T03:44:43;14.84;65.66
69009;SHT31;56065;52.472;13.380;2023-05-14T03:47:09;14.87;65.03
69009;SHT31;56065;52.472;13.380;2023-05-14T03:49:34;14.83;64.93
69009;SHT31;56065;52.472;13.380;2023-05-14T03:51:59;14.80;64.98
69009;SHT31;56065;52.472;13.380;2023-05-14T03:54:25;14.74;65.22
69009;SHT31;56065;52.472;13.380;2023-05-14T03:56:50;14.65;65.33
69009;SHT31;56065;52.472;13.380;2023-05-14T03:59:16;14.57;65.86
69009;SHT31;56065;52.472;13.380;2023-05-14T04:01:42;14.51;65.83
69009;SHT31;56065;52.472;13.380;2023-05-14T04:04:07;14.44;66.35
69009;SHT31;56065;52.472;13.380;2023-05-14T04:06:33;14.40;67.04
69009;SHT31;56065;52.472;13.380;2023-05-14T04:08:58;14.33;67.05
69009;SHT31;56065;52.472;13.380;2023-05-14T04:11:23;14.32;66.82
69009;SHT31;56065;52.472;13.380;2023-05-14T04:13:49;14.23;66.81
69009;SHT31;56065;52.472;13.380;2023-05-14T04:16:14;14.19;67.59
69009;SHT31;56065;52.472;13.380;2023-05-14T04:18:39;14.13;67.06
69009;SHT31;56065;52.472;13.380;2023-05-14T04:21:05;14.15;66.43
69009;SHT31;56065;52.472;13.380;2023-05-14T04:23:30;14.16;66.93
69009;SHT31;56065;52.472;13.380;2023-05-14T04:25:56;14.13;67.07
69009;SHT31;56065;52.472;13.380;2023-05-14T04:28:22;14.12;66.06
69009;SHT31;56065;52.472;13.380;2023-05-14T04:30:47;14.13;66.50
69009;SHT31;56065;52.472;13.380;2023-05-14T04:33:13;14.08;66.51
69009;SHT31;56065;52.472;13.380;2023-05-14T04:35:38;14.10;66.46
69009;SHT31;56065;52.472;13.380;2023-05-14T04:38:04;14.13;66.16
69009;SHT31;56065;52.472;13.380;2023-05-14T04:40:30;14.16;66.07
69009;SHT31;56065;52.472;13.380;2023-05-14T04:42:56;14.20;66.11
69009;SHT31;56065;52.472;13.380;2023-05-14T04:45:21;14.26;65.82
69009;SHT31;56065;52.472;13.380;2023-05-14T04:47:46;14.32;65.36
69009;SHT31;56065;52.472;13.380;2023-05-14T04:50:12;14.38;65.39
69009;SHT31;56065;52.472;13.380;2023-05-14T04:52:37;14.41;66.18
69009;SHT31;56065;52.472;13.380;2023-05-14T04:55:03;14.51;65.60
69009;SHT31;56065;52.472;13.380;2023-05-14T04:57:29;14.57;65.02
69009;SHT31;56065;52.472;13.380;2023-05-14T04:59:54;14.63;64.60
69009;SHT31;56065;52.472;13.380;2023-05-14T05:02:19;14.70;64.60
69009;SHT31;56065;52.472;13.380;2023-05-14T05:04:45;14.80;64.18
69009;SHT31;56065;52.472;13.380;2023-05-14T05:07:11;14.91;64.55
69009;SHT31;56065;52.472;13.380;2023-05-14T05:09:37;15.01;65.01
69009;SHT31;56065;52.472;13.380;2023-05-14T05:12:03;15.15;64.34
69009;SHT31;56065;52.472;13.380;2023-05-14T05:14:28;15.19;64.14
69009;SHT31;56065;52.472;13.380;2023-05-14T05:16:54;15.18;65.10
69009;SHT31;56065;52.472;13.380;2023-05-14T05:19:20;15.19;63.94
69009;SHT31;56065;52.472;13.380;2023-05-14T05:21:45;15.18;64.19
69009;SHT31;56065;52.472;13.380;2023-05-14T05:24:11;15.22;64.84
69009;SHT31;56065;52.472;13.380;2023-05-14T05:26:37;15.29;64.48
69009;SHT31;56065;52.472;13.380;2023-05-14T05:29:03;15.46;64.19
69009;SHT31;56065;52.472;13.380;2023-05-14T05:31:29;15.56;62.98
69009;SHT31;56065;52.472;13.380;2023-05-14T05:33:55;15.71;62.96
69009;SHT31;56065;52.472;13.380;2023-05-14T05:36:20;15.93;62.16
69009;SHT31;56065;52.472;13.380;2023-05-14T05:38:45;15.97;61.97
69009;SHT31;56065;52.472;13.380;2023-05-14T05:41:11;16.07;61.84
69009;SHT31;56065;52.472;13.380;2023-05-14T05:43:36;16.22;61.86
69009;SHT31;56065;52.472;13.380;2023-05-14T05:46:02;16.45;62.39
69009;SHT31;56065;52.472;13.380;2023-05-14T05:48:27;16.65;61.86
69009;SHT31;56065;52.472;13.380;2023-05-14T05:50:52;16.82;61.29
69009;SHT31;56065;52.472;13.380;2023-05-14T05:53:18;17.00;60.77
69009;SHT31;56065;52.472;13.380;2023-05-14T05:55:43;17.07;59.62
69009;SHT31;56065;52.472;13.380;2023-05-14T05:58:09;17.22;60.00
69009;SHT31;56065;52.472;13.380;2023-05-14T06:00:34;17.26;59.81
69009;SHT31;56065;52.472;13.380;2023-05-14T06:02:59;17.38;60.05
69009;SHT31;56065;52.472;13.380;2023-05-14T06:05:25;17.54;59.43
69009;SHT31;56065;52.472;13.380;2023-05-14T06:07:50;18.04;59.47
69009;SHT31;56065;52.472;13.380;2023-05-14T06:10:18;18.61;59.04
69009;SHT31;56065;52.472;13.380;2023-05-14T06:12:43;18.74;58.13
69009;SHT31;56065;52.472;13.380;2023-05-14T06:15:09;18.71;58.19
69009;SHT31;56065;52.472;13.380;2023-05-14T06:17:35;18.73;57.85
69009;SHT31;56065;52.472;13.380;2023-05-14T06:20:00;18.81;58.32
69009;SHT31;56065;52.472;13.380;2023-05-14T06:22:26;18.64;57.52
69009;SHT31;56065;52.472;13.380;2023-05-14T06:24:51;18.56;58.26
69009;SHT31;56065;52.472;13.380;2023-05-14T06:27:16;18.39;58.68
69009;SHT31;56065;52.472;13.380;2023-05-14T06:29:42;18.36;58.89
69009;SHT31;56065;52.472;13.380;2023-05-14T06:32:07;18.45;59.29
69009;SHT31;56065;52.472;13.380;2023-05-14T06:34:33;18.53;59.26
69009;SHT31;56065;52.472;13.380;2023-05-14T06:36:58;18.64;58.40
69009;SHT31;56065;52.472;13.380;2023-05-14T06:39:24;18.77;59.27
69009;SHT31;56065;52.472;13.380;2023-05-14T06:41:49;18.86;57.60
69009;SHT31;56065;52.472;13.380;2023-05-14T06:44:15;18.97;57.64
69009;SHT31;56065;52.472;13.380;2023-05-14T06:46:41;19.03;58.25
69009;SHT31;56065;52.472;13.380;2023-05-14T06:49:06;19.00;57.23
69009;SHT31;56065;52.472;13.380;2023-05-14T06:51:31;19.04;57.66
69009;SHT31;56065;52.472;13.380;2023-05-14T06:53:57;19.10;57.71
69009;SHT31;56065;52.472;13.380;2023-05-14T06:56:22;19.34;57.11
69009;SHT31;56065;52.472;13.380;2023-05-14T06:58:47;19.45;57.19
69009;SHT31;56065;52.472;13.380;2023-05-14T07:01:13;19.56;56.77
69009;SHT31;56065;52.472;13.380;2023-05-14T07:03:38;19.63;55.26
69009;SHT31;56065;52.472;13.380;2023-05-14T07:06:04;19.65;55.63
69009;SHT31;56065;52.472;13.380;2023-05-14T07:08:30;19.80;56.49
69009;SHT31;56065;52.472;13.380;2023-05-14T07:10:56;20.00;55.99
69009;SHT31;56065;52.472;13.380;2023-05-14T07:13:22;20.00;54.45
69009;SHT31;56065;52.472;13.380;2023-05-14T07:15:47;20.14;55.03
69009;SHT31;56065;52.472;13.380;2023-05-14T07:18:12;20.24;53.41
69009;SHT31;56065;52.472;13.380;2023-05-14T07:20:38;20.10;52.62
69009;SHT31;56065;52.472;13.380;2023-05-14T07:23:03;20.13;52.91
69009;SHT31;56065;52.472;13.380;2023-05-14T07:25:29;20.09;52.83
69009;SHT31;56065;52.472;13.380;2023-05-14T07:27:54;20.20;53.04
69009;SHT31;56065;52.472;13.380;2023-05-14T07:30:19;20.31;52.67
69009;SHT31;56065;52.472;13.380;2023-05-14T07:32:45;20.34;53.23
69009;SHT31;56065;52.472;13.380;2023-05-14T07:35:10;20.49;53.49
69009;SHT31;56065;52.472;13.380;2023-05-14T07:37:36;20.76;53.95
69009;SHT31;56065;52.472;13.380;2023-05-14T07:40:02;21.10;52.64
69009;SHT31;56065;52.472;13.380;2023-05-14T07:42:27;21.70;50.82
69009;SHT31;56065;52.472;13.380;2023-05-14T07:44:52;22.02;49.99
69009;SHT31;56065;52.472;13.380;2023-05-14T07:47:18;22.38;50.03
69009;SHT31;56065;52.472;13.380;2023-05-14T07:49:43;23.07;48.72
69009;SHT31;56065;52.472;13.380;2023-05-14T07:52:08;23.34;46.10
69009;SHT31;56065;52.472;13.380;2023-05-14T07:54:34;23.44;45.71
69009;SHT31;56065;52.472;13.380;2023-05-14T07:56:59;23.95;46.43
69009;SHT31;56065;52.472;13.380;2023-05-14T07:59:24;24.53;44.85
69009;SHT31;56065;52.472;13.380;2023-05-14T08:01:50;24.73;45.34
69009;SHT31;56065;52.472;13.380;2023-05-14T08:04:15;25.21;43.91
69009;SHT31;56065;52.472;13.380;2023-05-14T08:06:42;25.52;43.89
69009;SHT31;56065;52.472;13.380;2023-05-14T08:09:07;25.82;43.13
69009;SHT31;56065;52.472;13.380;2023-05-14T08:11:33;26.58;42.93
69009;SHT31;56065;52.472;13.380;2023-05-14T08:13:59;27.16;40.94
69009;SHT31;56065;52.472;13.380;2023-05-14T08:16:25;27.43;40.86
69009;SHT31;56065;52.472;13.380;2023-05-14T08:18:50;27.29;40.69
69009;SHT31;56065;52.472;13.380;2023-05-14T08:21:16;27.49;39.18
69009;SHT31;56065;52.472;13.380;2023-05-14T08:23:42;27.34;39.83
69009;SHT31;56065;52.472;13.380;2023-05-14T08:26:07;27.54;39.92
69009;SHT31;56065;52.472;13.380;2023-05-14T08:28:32;27.90;39.59
69009;SHT31;56065;52.472;13.380;2023-05-14T08:30:58;28.44;37.80
69009;SHT31;56065;52.472;13.380;2023-05-14T08:33:23;28.00;37.58
69009;SHT31;56065;52.472;13.380;2023-05-14T08:35:51;28.51;37.13
69009;SHT31;56065;52.472;13.380;2023-05-14T08:38:17;28.77;38.25
69009;SHT31;56065;52.472;13.380;2023-05-14T08:40:47;29.28;35.92
69009;SHT31;56065;52.472;13.380;2023-05-14T08:43:15;29.65;36.95
69009;SHT31;56065;52.472;13.380;2023-05-14T08:45:44;29.90;35.95
69009;SHT31;56065;52.472;13.380;2023-05-14T08:48:14;29.90;37.53
69009;SHT31;56065;52.472;13.380;2023-05-14T08:50:40;29.39;35.54
69009;SHT31;56065;52.472;13.380;2023-05-14T08:53:07;29.82;36.69
69009;SHT31;56065;52.472;13.380;2023-05-14T08:55:33;29.86;36.68
69009;SHT31;56065;52.472;13.380;2023-05-14T08:57:58;29.50;35.59
69009;SHT31;56065;52.472;13.380;2023-05-14T09:00:24;29.27;36.47
69009;SHT31;56065;52.472;13.380;2023-05-14T09:02:51;28.73;36.92
69009;SHT31;56065;52.472;13.380;2023-05-14T09:05:17;28.80;37.07
69009;SHT31;56065;52.472;13.380;2023-05-14T09:07:44;29.47;38.05
69009;SHT31;56065;52.472;13.380;2023-05-14T09:10:10;30.88;36.82
69009;SHT31;56065;52.472;13.380;2023-05-14T09:12:35;32.40;33.58
69009;SHT31;56065;52.472;13.380;2023-05-14T09:15:00;33.32;34.40
69009;SHT31;56065;52.472;13.380;2023-05-14T09:17:26;34.20;31.87
69009;SHT31;56065;52.472;13.380;2023-05-14T09:19:52;34.48;33.02
69009;SHT31;56065;52.472;13.380;2023-05-14T09:22:18;33.83;32.25
69009;SHT31;56065;52.472;13.380;2023-05-14T09:24:44;34.22;32.69
69009;SHT31;56065;52.472;13.380;2023-05-14T09:27:19;34.59;30.82
69009;SHT31;56065;52.472;13.380;2023-05-14T09:29:46;34.44;32.34
69009;SHT31;56065;52.472;13.380;2023-05-14T09:32:12;34.69;32.16
69009;SHT31;56065;52.472;13.380;2023-05-14T09:34:38;34.63;32.13
69009;SHT31;56065;52.472;13.380;2023-05-14T09:37:08;33.69;31.87
69009;SHT31;56065;52.472;13.380;2023-05-14T09:39:34;33.93;31.05
69009;SHT31;56065;52.472;13.380;2023-05-14T09:42:01;33.70;32.23
69009;SHT31;56065;52.472;13.380;2023-05-14T09:44:26;33.52;32.76
69009;SHT31;56065;52.472;13.380;2023-05-14T09:46:52;33.83;32.37
69009;SHT31;56065;52.472;13.380;2023-05-14T09:49:18;33.37;30.75
69009;SHT31;56065;52.472;13.380;2023-05-14T09:51:44;34.42;30.64
69009;SHT31;56065;52.472;13.380;2023-05-14T09:54:09;35.43;30.42
69009;SHT31;56065;52.472;13.380;2023-05-14T09:56:35;34.92;31.31
69009;SHT31;56065;52.472;13.380;2023-05-14T09:59:02;33.46;32.15
69009;SHT31;56065;52.472;13.380;2023-05-14T10:01:29;31.94;32.61
69009;SHT31;56065;52.472;13.380;2023-05-14T10:03:55;30.46;33.86
69009;SHT31;56065;52.472;13.380;2023-05-14T10:06:26;28.89;35.71
69009;SHT31;56065;52.472;13.380;2023-05-14T10:08:54;28.22;36.53
69009;SHT31;56065;52.472;13.380;2023-05-14T10:11:23;27.26;37.93
69009;SHT31;56065;52.472;13.380;2023-05-14T10:14:04;26.79;38.66
69009;SHT31;56065;52.472;13.380;2023-05-14T10:16:40;26.28;38.78
69009;SHT31;56065;52.472;13.380;2023-05-14T10:19:11;26.00;39.88
69009;SHT31;56065;52.472;13.380;2023-05-14T10:21:39;25.70;39.42
69009;SHT31;56065;52.472;13.380;2023-05-14T10:24:06;25.22;39.75
69009;SHT31;56065;52.472;13.380;2023-05-14T10:26:34;24.61;41.56
69009;SHT31;56065;52.472;13.380;2023-05-14T10:29:03;24.15;40.79
69009;SHT31;56065;52.472;13.380;2023-05-14T10:31:48;23.69;41.96
69009;SHT31;56065;52.472;13.380;2023-05-14T10:34:36;23.59;42.85
69009;SHT31;56065;52.472;13.380;2023-05-14T10:37:03;23.69;43.47
69009;SHT31;56065;52.472;13.380;2023-05-14T10:39:52;23.66;43.12
69009;SHT31;56065;52.472;13.380;2023-05-14T10:42:37;23.71;42.29
69009;SHT31;56065;52.472;13.380;2023-05-14T10:45:09;23.48;42.50
69009;SHT31;56065;52.472;13.380;2023-05-14T10:47:35;23.33;42.50
69009;SHT31;56065;52.472;13.380;2023-05-14T10:50:04;23.24;42.74
69009;SHT31;56065;52.472;13.380;2023-05-14T10:52:30;23.08;43.17
69009;SHT31;56065;52.472;13.380;2023-05-14T10:54:57;22.96;42.92
69009;SHT31;56065;52.472;13.380;2023-05-14T10:57:25;22.90;43.64
69009;SHT31;56065;52.472;13.380;2023-05-14T10:59:53;22.97;43.30
69009;SHT31;56065;52.472;13.380;2023-05-14T11:02:27;22.95;43.86
69009;SHT31;56065;52.472;13.380;2023-05-14T11:05:00;23.00;43.59
69009;SHT31;56065;52.472;13.380;2023-05-14T11:07:40;23.06;43.37
69009;SHT31;56065;52.472;13.380;2023-05-14T11:10:11;22.82;43.96
69009;SHT31;56065;52.472;13.380;2023-05-14T11:12:41;22.79;44.46
69009;SHT31;56065;52.472;13.380;2023-05-14T11:15:11;22.65;44.75
69009;SHT31;56065;52.472;13.380;2023-05-14T11:17:38;22.55;44.32
69009;SHT31;56065;52.472;13.380;2023-05-14T11:20:04;22.39;44.57
69009;SHT31;56065;52.472;13.380;2023-05-14T11:22:30;22.09;44.42
69009;SHT31;56065;52.472;13.380;2023-05-14T11:24:56;21.93;45.20
69009;SHT31;56065;52.472;13.380;2023-05-14T11:27:23;21.85;45.25
69009;SHT31;56065;52.472;13.380;2023-05-14T11:29:49;21.85;45.71
69009;SHT31;56065;52.472;13.380;2023-05-14T11:32:15;21.85;46.52
69009;SHT31;56065;52.472;13.380;2023-05-14T11:34:41;21.91;46.35
69009;SHT31;56065;52.472;13.380;2023-05-14T11:37:09;22.09;46.51
69009;SHT31;56065;52.472;13.380;2023-05-14T11:39:35;22.25;46.48
69009;SHT31;56065;52.472;13.380;2023-05-14T11:42:04;22.32;45.75
69009;SHT31;56065;52.472;13.380;2023-05-14T11:44:30;22.52;45.18
69009;SHT31;56065;52.472;13.380;2023-05-14T11:46:57;22.51;45.22
69009;SHT31;56065;52.472;13.380;2023-05-14T11:49:26;22.52;45.36
69009;SHT31;56065;52.472;13.380;2023-05-14T11:52:04;22.46;45.14
69009;SHT31;56065;52.472;13.380;2023-05-14T11:54:31;22.36;45.41
69009;SHT31;56065;52.472;13.380;2023-05-14T11:56:58;22.24;45.69
69009;SHT31;56065;52.472;13.380;2023-05-14T11:59:24;22.05;46.42
69009;SHT31;56065;52.472;13.380;2023-05-14T12:01:50;22.05;46.41
69009;SHT31;56065;52.472;13.380;2023-05-14T12:04:18;22.12;45.63
69009;SHT31;56065;52.472;13.380;2023-05-14T12:06:47;22.19;45.72
69009;SHT31;56065;52.472;13.380;2023-05-14T12:09:15;22.28;45.64
69009;SHT31;56065;52.472;13.380;2023-05-14T12:11:42;22.44;46.32
69009;SHT31;56065;52.472;13.380;2023-05-14T12:14:15;22.62;45.38
69009;SHT31;56065;52.472;13.380;2023-05-14T12:16:41;22.67;45.25
69009;SHT31;56065;52.472;13.380;2023-05-14T12:19:08;22.89;45.97
69009;SHT31;56065;52.472;13.380;2023-05-14T12:21:35;23.14;45.61
69009;SHT31;56065;52.472;13.380;2023-05-14T12:24:01;23.45;45.50
69009;SHT31;56065;52.472;13.380;2023-05-14T12:26:26;23.85;45.52
69009;SHT31;56065;52.472;13.380;2023-05-14T12:28:59;24.05;43.87
69009;SHT31;56065;52.472;13.380;2023-05-14T12:31:29;24.32;44.58
69009;SHT31;56065;52.472;13.380;2023-05-14T12:33:55;24.50;43.26
69009;SHT31;56065;52.472;13.380;2023-05-14T12:36:20;24.49;41.94
69009;SHT31;56065;52.472;13.380;2023-05-14T12:38:46;24.41;43.19
69009;SHT31;56065;52.472;13.380;2023-05-14T12:41:11;24.32;43.54
69009;SHT31;56065;52.472;13.380;2023-05-14T12:43:37;24.22;43.15
69009;SHT31;56065;52.472;13.380;2023-05-14T12:46:02;24.26;43.36
69009;SHT31;56065;52.472;13.380;2023-05-14T12:48:27;24.37;42.99
69009;SHT31;56065;52.472;13.380;2023-05-14T12:50:53;24.37;42.55
69009;SHT31;56065;52.472;13.380;2023-05-14T12:53:18;24.37;43.21
69009;SHT31;56065;52.472;13.380;2023-05-14T12:55:43;24.47;42.30
69009;SHT31;56065;52.472;13.380;2023-05-14T12:58:09;24.32;42.65
69009;SHT31;56065;52.472;13.380;2023-05-14T13:00:34;24.29;43.32
69009;SHT31;56065;52.472;13.380;2023-05-14T13:02:59;24.29;42.53
69009;SHT31;56065;52.472;13.380;2023-05-14T13:05:25;24.16;43.10
69009;SHT31;56065;52.472;13.380;2023-05-14T13:07:51;23.78;42.95
69009;SHT31;56065;52.472;13.380;2023-05-14T13:10:17;23.41;42.73
69009;SHT31;56065;52.472;13.380;2023-05-14T13:12:42;23.23;43.74
69009;SHT31;56065;52.472;13.380;2023-05-14T13:15:08;23.02;43.91
69009;SHT31;56065;52.472;13.380;2023-05-14T13:17:34;22.80;44.07
69009;SHT31;56065;52.472;13.380;2023-05-14T13:20:00;22.76;44.18
69009;SHT31;56065;52.472;13.380;2023-05-14T13:22:25;22.72;44.58
69009;SHT31;56065;52.472;13.380;2023-05-14T13:24:51;22.72;43.76
69009;SHT31;56065;52.472;13.380;2023-05-14T13:27:16;22.75;44.44
69009;SHT31;56065;52.472;13.380;2023-05-14T13:29:41;22.82;44.15
69009;SHT31;56065;52.472;13.380;2023-05-14T13:32:07;22.95;44.50
69009;SHT31;56065;52.472;13.380;2023-05-14T13:34:33;22.97;44.52
69009;SHT31;56065;52.472;13.380;2023-05-14T13:36:58;23.04;43.46
69009;SHT31;56065;52.472;13.380;2023-05-14T13:39:23;22.89;43.06
69009;SHT31;56065;52.472;13.380;2023-05-14T13:41:51;22.75;43.56
69009;SHT31;56065;52.472;13.380;2023-05-14T13:44:17;22.60;44.91
69009;SHT31;56065;52.472;13.380;2023-05-14T13:46:42;22.39;44.32
69009;SHT31;56065;52.472;13.380;2023-05-14T13:49:07;22.24;44.52
69009;SHT31;56065;52.472;13.380;2023-05-14T13:51:33;22.12;44.64
69009;SHT31;56065;52.472;13.380;2023-05-14T13:53:58;22.07;45.00
69009;SHT31;56065;52.472;13.380;2023-05-14T13:56:24;22.01;44.90
69009;SHT31;56065;52.472;13.380;2023-05-14T13:58:50;21.93;45.20
69009;SHT31;56065;52.472;13.380;2023-05-14T14:01:15;21.94;45.32
69009;SHT31;56065;52.472;13.380;2023-05-14T14:03:40;21.98;45.49
69009;SHT31;56065;52.472;13.380;2023-05-14T14:06:06;21.94;45.88
69009;SHT31;56065;52.472;13.380;2023-05-14T14:08:31;22.02;45.02
69009;SHT31;56065;52.472;13.380;2023-05-14T14:10:56;22.01;46.03
69009;SHT31;56065;52.472;13.380;2023-05-14T14:13:22;22.00;46.78
69009;SHT31;56065;52.472;13.380;2023-05-14T14:15:47;22.08;44.40
69009;SHT31;56065;52.472;13.380;2023-05-14T14:18:13;22.08;44.13
69009;SHT31;56065;52.472;13.380;2023-05-14T14:20:38;22.14;43.72
69009;SHT31;56065;52.472;13.380;2023-05-14T14:23:03;22.07;43.86
69009;SHT31;56065;52.472;13.380;2023-05-14T14:25:29;22.07;43.17
69009;SHT31;56065;52.472;13.380;2023-05-14T14:27:54;22.14;43.20
69009;SHT31;56065;52.472;13.380;2023-05-14T14:30:20;22.12;43.01
69009;SHT31;56065;52.472;13.380;2023-05-14T14:32:46;22.21;43.19
69009;SHT31;56065;52.472;13.380;2023-05-14T14:35:14;22.26;43.89
69009;SHT31;56065;52.472;13.380;2023-05-14T14:37:40;22.35;43.73
69009;SHT31;56065;52.472;13.380;2023-05-14T14:40:07;22.41;43.33
69009;SHT31;56065;52.472;13.380;2023-05-14T14:42:35;22.57;43.21
69009;SHT31;56065;52.472;13.380;2023-05-14T14:45:01;22.73;43.14
69009;SHT31;56065;52.472;13.380;2023-05-14T14:47:27;22.93;43.50
69009;SHT31;56065;52.472;13.380;2023-05-14T14:49:53;23.13;42.91
69009;SHT31;56065;52.472;13.380;2023-05-14T14:52:19;23.34;44.42
69009;SHT31;56065;52.472;13.380;2023-05-14T14:54:45;23.62;43.54
69009;SHT31;56065;52.472;13.380;2023-05-14T14:57:10;23.81;44.00
69009;SHT31;56065;52.472;13.380;2023-05-14T14:59:35;24.04;42.48
69009;SHT31;56065;52.472;13.380;2023-05-14T15:02:01;24.15;41.64
69009;SHT31;56065;52.472;13.380;2023-05-14T15:04:26;24.23;40.68
69009;SHT31;56065;52.472;13.380;2023-05-14T15:06:52;24.43;41.99
69009;SHT31;56065;52.472;13.380;2023-05-14T15:09:17;24.33;40.30
69009;SHT31;56065;52.472;13.380;2023-05-14T15:11:43;24.70;39.91
69009;SHT31;56065;52.472;13.380;2023-05-14T15:14:08;25.14;39.08
69009;SHT31;56065;52.472;13.380;2023-05-14T15:16:34;24.99;39.53